sensor_id;sensor_type;location;lat;lon;timestamp;P1;durP1;ratioP1;P2;durP2;ratioP2
9420;SDS011;4749;51.398;5.466;2024-01-15T00:00:35;52.53;;;22.80;;
9420;SDS011;4749;51.398;5.466;2024-01-15T00:03:02;49.33;;;21.73;;
9420;SDS011;4749;51.398;5.466;2024-01-15T00:05:30;51.13;;;22.33;;
9420;SDS011;4749;51.398;5.466;2024-01-15T00:07:57;45.90;;;21.13;;
9420;SDS011;4749;51.398;5.466;2024-01-15T00:10:24;45.80;;;21.73;;
9420;SDS011;4749;51.398;5.466;2024-01-15T00:12:51;42.53;;;19.57;;
9420;SDS011;4749;51.398;5.466;2024-01-15T00:15:18;47.20;;;19.90;;
9420;SDS011;4749;51.398;5.466;2024-01-15T00:17:45;43.37;;;19.40;;
9420;SDS011;4749;51.398;5.466;2024-01-15T00:20:12;41.73;;;18.57;;
9420;SDS011;4749;51.398;5.466;2024-01-15T00:22:40;42.40;;;19.27;;
9420;SDS011;4749;51.398;5.466;2024-01-15T00:25:07;36.43;;;16.23;;
9420;SDS011;4749;51.398;5.466;2024-01-15T00:27:34;33.07;;;14.40;;
9420;SDS011;4749;51.398;5.466;2024-01-15T00:30:02;31.63;;;14.60;;
9420;SDS011;4749;51.398;5.466;2024-01-15T00:32:31;29.57;;;14.77;;
9420;SDS011;4749;51.398;5.466;2024-01-15T00:34:58;24.03;;;11.83;;
9420;SDS011;4749;51.398;5.466;2024-01-15T00:37:25;26.53;;;12.07;;
9420;SDS011;4749;51.398;5.466;2024-01-15T00:39:52;24.70;;;11.30;;
9420;SDS011;4749;51.398;5.466;2024-01-15T00:42:19;22.30;;;10.23;;
9420;SDS011;4749;51.398;5.466;2024-01-15T00:44:46;25.30;;;9.53;;
9420;SDS011;4749;51.398;5.466;2024-01-15T00:47:13;14.37;;;7.80;;
9420;SDS011;4749;51.398;5.466;2024-01-15T00:49:41;15.87;;;7.57;;
9420;SDS011;4749;51.398;5.466;2024-01-15T00:52:08;16.50;;;6.80;;
9420;SDS011;4749;51.398;5.466;2024-01-15T00:54:35;14.90;;;5.87;;
9420;SDS011;4749;51.398;5.466;2024-01-15T00:57:02;15.50;;;6.10;;
9420;SDS011;4749;51.398;5.466;2024-01-15T00:59:30;12.63;;;4.77;;
9420;SDS011;4749;51.398;5.466;2024-01-15T01:01:57;11.67;;;4.27;;
9420;SDS011;4749;51.398;5.466;2024-01-15T01:04:24;12.23;;;3.83;;
9420;SDS011;4749;51.398;5.466;2024-01-15T01:06:51;9.23;;;4.20;;
9420;SDS011;4749;51.398;5.466;2024-01-15T01:09:19;11.93;;;4.03;;
9420;SDS011;4749;51.398;5.466;2024-01-15T01:11:46;8.70;;;3.80;;
9420;SDS011;4749;51.398;5.466;2024-01-15T01:14:13;8.00;;;3.50;;
9420;SDS011;4749;51.398;5.466;2024-01-15T01:16:40;11.07;;;3.80;;
9420;SDS011;4749;51.398;5.466;2024-01-15T01:19:07;9.60;;;3.90;;
9420;SDS011;4749;51.398;5.466;2024-01-15T01:21:35;9.53;;;4.60;;
9420;SDS011;4749;51.398;5.466;2024-01-15T01:24:02;12.27;;;6.87;;
9420;SDS011;4749;51.398;5.466;2024-01-15T01:26:30;17.57;;;7.37;;
9420;SDS011;4749;51.398;5.466;2024-01-15T01:28:57;15.37;;;8.03;;
9420;SDS011;4749;51.398;5.466;2024-01-15T01:31:25;17.70;;;8.50;;
9420;SDS011;4749;51.398;5.466;2024-01-15T01:33:52;18.97;;;9.50;;
9420;SDS011;4749;51.398;5.466;2024-01-15T01:36:19;18.77;;;8.73;;
9420;SDS011;4749;51.398;5.466;2024-01-15T01:38:47;20.07;;;8.47;;
9420;SDS011;4749;51.398;5.466;2024-01-15T01:41:14;19.37;;;9.23;;
9420;SDS011;4749;51.398;5.466;2024-01-15T01:43:41;19.50;;;8.97;;
9420;SDS011;4749;51.398;5.466;2024-01-15T01:46:09;18.47;;;9.37;;
9420;SDS011;4749;51.398;5.466;2024-01-15T01:48:37;20.37;;;10.17;;
9420;SDS011;4749;51.398;5.466;2024-01-15T01:51:04;22.23;;;9.90;;
9420;SDS011;4749;51.398;5.466;2024-01-15T01:53:32;18.77;;;8.90;;
9420;SDS011;4749;51.398;5.466;2024-01-15T01:56:01;18.40;;;10.27;;
9420;SDS011;4749;51.398;5.466;2024-01-15T01:58:30;17.23;;;9.43;;
9420;SDS011;4749;51.398;5.466;2024-01-15T02:00:58;18.90;;;9.47;;
9420;SDS011;4749;51.398;5.466;2024-01-15T02:03:27;17.07;;;9.77;;
9420;SDS011;4749;51.398;5.466;2024-01-15T02:05:55;18.23;;;9.70;;
9420;SDS011;4749;51.398;5.466;2024-01-15T02:08:23;19.83;;;10.30;;
9420;SDS011;4749;51.398;5.466;2024-01-15T02:10:51;15.77;;;9.63;;
9420;SDS011;4749;51.398;5.466;2024-01-15T02:13:18;19.53;;;9.40;;
9420;SDS011;4749;51.398;5.466;2024-01-15T02:15:47;19.00;;;9.43;;
9420;SDS011;4749;51.398;5.466;2024-01-15T02:18:14;17.87;;;8.30;;
9420;SDS011;4749;51.398;5.466;2024-01-15T02:20:42;13.07;;;6.97;;
9420;SDS011;4749;51.398;5.466;2024-01-15T02:23:11;17.30;;;7.07;;
9420;SDS011;4749;51.398;5.466;2024-01-15T02:25:44;12.30;;;7.03;;
9420;SDS011;4749;51.398;5.466;2024-01-15T02:28:16;11.73;;;6.77;;
9420;SDS011;4749;51.398;5.466;2024-01-15T02:30:44;13.90;;;6.40;;
9420;SDS011;4749;51.398;5.466;2024-01-15T02:33:12;12.60;;;6.27;;
9420;SDS011;4749;51.398;5.466;2024-01-15T02:35:40;13.10;;;5.50;;
9420;SDS011;4749;51.398;5.466;2024-01-15T02:38:07;7.93;;;4.60;;
9420;SDS011;4749;51.398;5.466;2024-01-15T02:40:35;7.23;;;4.07;;
9420;SDS011;4749;51.398;5.466;2024-01-15T02:43:03;6.50;;;3.50;;
9420;SDS011;4749;51.398;5.466;2024-01-15T02:45:30;6.53;;;3.30;;
9420;SDS011;4749;51.398;5.466;2024-01-15T02:47:57;8.43;;;3.27;;
9420;SDS011;4749;51.398;5.466;2024-01-15T02:50:24;6.97;;;3.37;;
9420;SDS011;4749;51.398;5.466;2024-01-15T02:52:52;7.40;;;2.93;;
9420;SDS011;4749;51.398;5.466;2024-01-15T02:55:19;8.33;;;3.20;;
9420;SDS011;4749;51.398;5.466;2024-01-15T02:57:46;8.60;;;3.13;;
9420;SDS011;4749;51.398;5.466;2024-01-15T03:00:14;8.07;;;3.10;;
9420;SDS011;4749;51.398;5.466;2024-01-15T03:02:44;11.43;;;3.40;;
9420;SDS011;4749;51.398;5.466;2024-01-15T03:05:14;7.90;;;4.13;;
9420;SDS011;4749;51.398;5.466;2024-01-15T03:07:42;14.07;;;4.10;;
9420;SDS011;4749;51.398;5.466;2024-01-15T03:10:09;8.80;;;4.67;;
9420;SDS011;4749;51.398;5.466;2024-01-15T03:12:36;10.10;;;5.17;;
9420;SDS011;4749;51.398;5.466;2024-01-15T03:15:03;9.23;;;5.50;;
9420;SDS011;4749;51.398;5.466;2024-01-15T03:17:31;12.63;;;6.00;;
9420;SDS011;4749;51.398;5.466;2024-01-15T03:19:59;12.27;;;6.67;;
9420;SDS011;4749;51.398;5.466;2024-01-15T03:22:27;12.93;;;6.00;;
9420;SDS011;4749;51.398;5.466;2024-01-15T03:24:54;13.13;;;6.27;;
9420;SDS011;4749;51.398;5.466;2024-01-15T03:27:21;13.13;;;6.93;;
9420;SDS011;4749;51.398;5.466;2024-01-15T03:29:48;14.13;;;7.23;;
9420;SDS011;4749;51.398;5.466;2024-01-15T03:32:15;18.00;;;6.73;;
9420;SDS011;4749;51.398;5.466;2024-01-15T03:34:43;13.47;;;6.37;;
9420;SDS011;4749;51.398;5.466;2024-01-15T03:37:10;13.10;;;6.23;;
9420;SDS011;4749;51.398;5.466;2024-01-15T03:39:37;12.77;;;6.30;;
9420;SDS011;4749;51.398;5.466;2024-01-15T03:42:05;12.63;;;5.10;;
9420;SDS011;4749;51.398;5.466;2024-01-15T03:44:33;10.77;;;5.40;;
9420;SDS011;4749;51.398;5.466;2024-01-15T03:47:00;13.07;;;5.50;;
9420;SDS011;4749;51.398;5.466;2024-01-15T03:49:27;14.93;;;4.93;;
9420;SDS011;4749;51.398;5.466;2024-01-15T03:51:54;11.50;;;4.03;;
9420;SDS011;4749;51.398;5.466;2024-01-15T03:54:22;13.13;;;4.43;;
9420;SDS011;4749;51.398;5.466;2024-01-15T03:56:49;11.40;;;4.50;;
9420;SDS011;4749;51.398;5.466;2024-01-15T03:59:16;10.00;;;4.23;;
9420;SDS011;4749;51.398;5.466;2024-01-15T04:01:49;9.83;;;3.60;;
9420;SDS011;4749;51.398;5.466;2024-01-15T04:04:17;11.47;;;3.33;;
9420;SDS011;4749;51.398;5.466;2024-01-15T04:06:45;7.63;;;2.77;;
9420;SDS011;4749;51.398;5.466;2024-01-15T04:09:13;10.43;;;2.53;;
9420;SDS011;4749;51.398;5.466;2024-01-15T04:11:40;8.10;;;2.33;;
9420;SDS011;4749;51.398;5.466;2024-01-15T04:14:07;8.50;;;2.00;;
9420;SDS011;4749;51.398;5.466;2024-01-15T04:16:35;5.37;;;2.10;;
9420;SDS011;4749;51.398;5.466;2024-01-15T04:19:04;5.30;;;1.67;;
9420;SDS011;4749;51.398;5.466;2024-01-15T04:21:31;6.10;;;1.47;;
9420;SDS011;4749;51.398;5.466;2024-01-15T04:23:58;8.03;;;1.30;;
9420;SDS011;4749;51.398;5.466;2024-01-15T04:26:26;8.03;;;1.57;;
9420;SDS011;4749;51.398;5.466;2024-01-15T04:28:53;3.37;;;1.10;;
9420;SDS011;4749;51.398;5.466;2024-01-15T04:31:23;9.87;;;1.30;;
9420;SDS011;4749;51.398;5.466;2024-01-15T04:33:53;12.43;;;1.10;;
9420;SDS011;4749;51.398;5.466;2024-01-15T04:36:21;8.37;;;1.00;;
9420;SDS011;4749;51.398;5.466;2024-01-15T04:38:48;9.50;;;1.70;;
9420;SDS011;4749;51.398;5.466;2024-01-15T04:41:15;6.17;;;0.80;;
9420;SDS011;4749;51.398;5.466;2024-01-15T04:43:43;8.07;;;1.23;;
9420;SDS011;4749;51.398;5.466;2024-01-15T04:46:10;4.37;;;0.87;;
9420;SDS011;4749;51.398;5.466;2024-01-15T04:48:37;5.90;;;0.70;;
9420;SDS011;4749;51.398;5.466;2024-01-15T04:51:05;6.43;;;0.90;;
9420;SDS011;4749;51.398;5.466;2024-01-15T04:53:35;7.20;;;0.80;;
9420;SDS011;4749;51.398;5.466;2024-01-15T04:56:02;4.07;;;0.97;;
9420;SDS011;4749;51.398;5.466;2024-01-15T04:58:29;5.60;;;1.10;;
9420;SDS011;4749;51.398;5.466;2024-01-15T05:00:56;4.17;;;0.90;;
9420;SDS011;4749;51.398;5.466;2024-01-15T05:03:24;4.73;;;0.80;;
9420;SDS011;4749;51.398;5.466;2024-01-15T05:05:51;3.77;;;0.87;;
9420;SDS011;4749;51.398;5.466;2024-01-15T05:08:19;2.37;;;0.87;;
9420;SDS011;4749;51.398;5.466;2024-01-15T05:10:46;5.50;;;1.10;;
9420;SDS011;4749;51.398;5.466;2024-01-15T05:13:14;3.93;;;1.10;;
9420;SDS011;4749;51.398;5.466;2024-01-15T05:15:41;2.47;;;0.90;;
9420;SDS011;4749;51.398;5.466;2024-01-15T05:18:08;6.60;;;1.10;;
9420;SDS011;4749;51.398;5.466;2024-01-15T05:20:35;7.83;;;1.40;;
9420;SDS011;4749;51.398;5.466;2024-01-15T05:23:03;5.50;;;1.00;;
9420;SDS011;4749;51.398;5.466;2024-01-15T05:25:30;9.97;;;1.30;;
9420;SDS011;4749;51.398;5.466;2024-01-15T05:27:57;6.17;;;1.23;;
9420;SDS011;4749;51.398;5.466;2024-01-15T05:30:25;9.13;;;1.17;;
9420;SDS011;4749;51.398;5.466;2024-01-15T05:32:52;7.93;;;1.27;;
9420;SDS011;4749;51.398;5.466;2024-01-15T05:35:23;6.50;;;1.13;;
9420;SDS011;4749;51.398;5.466;2024-01-15T05:37:50;7.77;;;1.47;;
9420;SDS011;4749;51.398;5.466;2024-01-15T05:40:17;6.70;;;1.47;;
9420;SDS011;4749;51.398;5.466;2024-01-15T05:42:44;7.23;;;2.00;;
9420;SDS011;4749;51.398;5.466;2024-01-15T05:45:12;8.20;;;2.13;;
9420;SDS011;4749;51.398;5.466;2024-01-15T05:47:39;9.73;;;2.63;;
9420;SDS011;4749;51.398;5.466;2024-01-15T05:50:06;9.83;;;3.13;;
9420;SDS011;4749;51.398;5.466;2024-01-15T05:52:35;10.97;;;3.90;;
9420;SDS011;4749;51.398;5.466;2024-01-15T05:55:02;8.53;;;3.50;;
9420;SDS011;4749;51.398;5.466;2024-01-15T05:57:31;10.20;;;4.60;;
9420;SDS011;4749;51.398;5.466;2024-01-15T05:59:58;16.17;;;4.93;;
9420;SDS011;4749;51.398;5.466;2024-01-15T06:02:25;11.40;;;5.10;;
9420;SDS011;4749;51.398;5.466;2024-01-15T06:04:52;13.80;;;4.83;;
9420;SDS011;4749;51.398;5.466;2024-01-15T06:07:19;10.17;;;4.77;;
9420;SDS011;4749;51.398;5.466;2024-01-15T06:09:46;13.77;;;4.97;;
9420;SDS011;4749;51.398;5.466;2024-01-15T06:12:13;8.93;;;4.43;;
9420;SDS011;4749;51.398;5.466;2024-01-15T06:14:41;12.00;;;4.30;;
9420;SDS011;4749;51.398;5.466;2024-01-15T06:17:09;8.23;;;3.10;;
9420;SDS011;4749;51.398;5.466;2024-01-15T06:19:36;7.30;;;3.20;;
9420;SDS011;4749;51.398;5.466;2024-01-15T06:22:03;8.20;;;2.30;;
9420;SDS011;4749;51.398;5.466;2024-01-15T06:24:30;10.97;;;3.07;;
9420;SDS011;4749;51.398;5.466;2024-01-15T06:26:57;10.10;;;3.20;;
9420;SDS011;4749;51.398;5.466;2024-01-15T06:29:25;7.17;;;3.40;;
9420;SDS011;4749;51.398;5.466;2024-01-15T06:31:55;9.20;;;3.70;;
9420;SDS011;4749;51.398;5.466;2024-01-15T06:34:23;9.00;;;4.43;;
9420;SDS011;4749;51.398;5.466;2024-01-15T06:36:50;11.03;;;5.10;;
9420;SDS011;4749;51.398;5.466;2024-01-15T06:39:17;16.27;;;6.47;;
9420;SDS011;4749;51.398;5.466;2024-01-15T06:41:44;11.63;;;5.97;;
9420;SDS011;4749;51.398;5.466;2024-01-15T06:44:12;14.03;;;6.40;;
9420;SDS011;4749;51.398;5.466;2024-01-15T06:46:42;12.80;;;6.57;;
9420;SDS011;4749;51.398;5.466;2024-01-15T06:49:10;14.90;;;6.90;;
9420;SDS011;4749;51.398;5.466;2024-01-15T06:51:38;13.57;;;6.73;;
9420;SDS011;4749;51.398;5.466;2024-01-15T06:54:05;11.63;;;7.17;;
9420;SDS011;4749;51.398;5.466;2024-01-15T06:56:33;11.00;;;6.77;;
9420;SDS011;4749;51.398;5.466;2024-01-15T06:59:00;10.53;;;5.77;;
9420;SDS011;4749;51.398;5.466;2024-01-15T07:01:29;9.50;;;5.00;;
9420;SDS011;4749;51.398;5.466;2024-01-15T07:03:56;11.70;;;4.80;;
9420;SDS011;4749;51.398;5.466;2024-01-15T07:06:23;11.90;;;4.70;;
9420;SDS011;4749;51.398;5.466;2024-01-15T07:08:50;9.67;;;4.00;;
9420;SDS011;4749;51.398;5.466;2024-01-15T07:11:18;7.43;;;3.10;;
9420;SDS011;4749;51.398;5.466;2024-01-15T07:13:45;6.00;;;2.57;;
9420;SDS011;4749;51.398;5.466;2024-01-15T07:16:12;5.07;;;2.47;;
9420;SDS011;4749;51.398;5.466;2024-01-15T07:18:45;4.20;;;1.90;;
9420;SDS011;4749;51.398;5.466;2024-01-15T07:21:12;4.43;;;1.97;;
9420;SDS011;4749;51.398;5.466;2024-01-15T07:23:39;5.03;;;2.03;;
9420;SDS011;4749;51.398;5.466;2024-01-15T07:26:06;4.77;;;1.70;;
9420;SDS011;4749;51.398;5.466;2024-01-15T07:28:52;1.97;;;1.40;;
9420;SDS011;4749;51.398;5.466;2024-01-15T07:31:19;2.17;;;1.50;;
9420;SDS011;4749;51.398;5.466;2024-01-15T07:33:48;2.40;;;1.50;;
9420;SDS011;4749;51.398;5.466;2024-01-15T07:36:15;3.93;;;1.30;;
9420;SDS011;4749;51.398;5.466;2024-01-15T07:38:42;2.83;;;1.20;;
9420;SDS011;4749;51.398;5.466;2024-01-15T07:41:09;2.57;;;1.10;;
9420;SDS011;4749;51.398;5.466;2024-01-15T07:43:37;1.90;;;1.30;;
9420;SDS011;4749;51.398;5.466;2024-01-15T07:46:05;3.53;;;1.70;;
9420;SDS011;4749;51.398;5.466;2024-01-15T07:48:33;2.30;;;1.90;;
9420;SDS011;4749;51.398;5.466;2024-01-15T07:51:01;2.47;;;1.90;;
9420;SDS011;4749;51.398;5.466;2024-01-15T07:53:28;4.20;;;2.23;;
9420;SDS011;4749;51.398;5.466;2024-01-15T07:55:55;4.60;;;3.17;;
9420;SDS011;4749;51.398;5.466;2024-01-15T07:58:23;4.40;;;2.80;;
9420;SDS011;4749;51.398;5.466;2024-01-15T08:00:50;5.90;;;3.90;;
9420;SDS011;4749;51.398;5.466;2024-01-15T08:03:18;5.77;;;3.47;;
9420;SDS011;4749;51.398;5.466;2024-01-15T08:05:46;7.80;;;3.80;;
9420;SDS011;4749;51.398;5.466;2024-01-15T08:08:13;5.13;;;3.77;;
9420;SDS011;4749;51.398;5.466;2024-01-15T08:10:40;6.67;;;3.67;;
9420;SDS011;4749;51.398;5.466;2024-01-15T08:13:07;5.87;;;3.40;;
9420;SDS011;4749;51.398;5.466;2024-01-15T08:15:36;6.80;;;3.57;;
9420;SDS011;4749;51.398;5.466;2024-01-15T08:18:03;5.67;;;3.67;;
9420;SDS011;4749;51.398;5.466;2024-01-15T08:20:30;7.27;;;4.13;;
9420;SDS011;4749;51.398;5.466;2024-01-15T08:22:58;6.97;;;3.67;;
9420;SDS011;4749;51.398;5.466;2024-01-15T08:25:25;5.80;;;3.70;;
9420;SDS011;4749;51.398;5.466;2024-01-15T08:27:52;4.53;;;3.77;;
9420;SDS011;4749;51.398;5.466;2024-01-15T08:30:19;5.50;;;3.37;;
9420;SDS011;4749;51.398;5.466;2024-01-15T08:32:47;4.00;;;2.93;;
9420;SDS011;4749;51.398;5.466;2024-01-15T08:35:15;4.47;;;2.97;;
9420;SDS011;4749;51.398;5.466;2024-01-15T08:37:42;3.70;;;2.77;;
9420;SDS011;4749;51.398;5.466;2024-01-15T08:40:09;4.87;;;2.60;;
9420;SDS011;4749;51.398;5.466;2024-01-15T08:42:37;2.10;;;1.53;;
9420;SDS011;4749;51.398;5.466;2024-01-15T08:45:04;2.10;;;1.40;;
9420;SDS011;4749;51.398;5.466;2024-01-15T08:47:32;1.50;;;1.20;;
9420;SDS011;4749;51.398;5.466;2024-01-15T08:49:59;2.20;;;1.10;;
9420;SDS011;4749;51.398;5.466;2024-01-15T08:52:27;4.93;;;0.80;;
9420;SDS011;4749;51.398;5.466;2024-01-15T08:54:54;1.90;;;0.70;;
9420;SDS011;4749;51.398;5.466;2024-01-15T08:57:23;1.70;;;0.57;;
9420;SDS011;4749;51.398;5.466;2024-01-15T08:59:50;4.77;;;0.90;;
9420;SDS011;4749;51.398;5.466;2024-01-15T09:02:20;3.03;;;0.60;;
9420;SDS011;4749;51.398;5.466;2024-01-15T09:04:48;1.93;;;0.50;;
9420;SDS011;4749;51.398;5.466;2024-01-15T09:07:15;3.13;;;0.67;;
9420;SDS011;4749;51.398;5.466;2024-01-15T09:09:42;5.47;;;0.60;;
9420;SDS011;4749;51.398;5.466;2024-01-15T09:12:09;2.07;;;0.73;;
9420;SDS011;4749;51.398;5.466;2024-01-15T09:14:37;2.50;;;0.60;;
9420;SDS011;4749;51.398;5.466;2024-01-15T09:17:04;6.43;;;0.63;;
9420;SDS011;4749;51.398;5.466;2024-01-15T09:19:31;2.93;;;0.53;;
9420;SDS011;4749;51.398;5.466;2024-01-15T09:21:59;3.77;;;0.60;;
9420;SDS011;4749;51.398;5.466;2024-01-15T09:24:26;1.37;;;0.63;;
9420;SDS011;4749;51.398;5.466;2024-01-15T09:26:55;2.43;;;0.70;;
9420;SDS011;4749;51.398;5.466;2024-01-15T09:29:22;4.07;;;0.90;;
9420;SDS011;4749;51.398;5.466;2024-01-15T09:31:50;5.47;;;1.20;;
9420;SDS011;4749;51.398;5.466;2024-01-15T09:34:18;3.23;;;0.90;;
9420;SDS011;4749;51.398;5.466;2024-01-15T09:36:46;3.00;;;0.93;;
9420;SDS011;4749;51.398;5.466;2024-01-15T09:39:15;4.40;;;1.57;;
9420;SDS011;4749;51.398;5.466;2024-01-15T09:41:42;8.47;;;1.47;;
9420;SDS011;4749;51.398;5.466;2024-01-15T09:44:10;2.90;;;1.00;;
9420;SDS011;4749;51.398;5.466;2024-01-15T09:46:38;2.70;;;0.90;;
9420;SDS011;4749;51.398;5.466;2024-01-15T09:49:06;4.10;;;1.30;;
9420;SDS011;4749;51.398;5.466;2024-01-15T09:51:34;3.20;;;1.20;;
9420;SDS011;4749;51.398;5.466;2024-01-15T09:54:03;1.83;;;1.20;;
9420;SDS011;4749;51.398;5.466;2024-01-15T09:56:30;3.90;;;1.57;;
9420;SDS011;4749;51.398;5.466;2024-01-15T09:58:58;2.33;;;1.20;;
9420;SDS011;4749;51.398;5.466;2024-01-15T10:01:26;3.30;;;1.30;;
9420;SDS011;4749;51.398;5.466;2024-01-15T10:03:55;3.10;;;1.70;;
9420;SDS011;4749;51.398;5.466;2024-01-15T10:06:22;3.17;;;1.50;;
9420;SDS011;4749;51.398;5.466;2024-01-15T10:08:50;3.13;;;1.27;;
9420;SDS011;4749;51.398;5.466;2024-01-15T10:11:18;3.77;;;1.60;;
9420;SDS011;4749;51.398;5.466;2024-01-15T10:13:45;4.80;;;1.60;;
9420;SDS011;4749;51.398;5.466;2024-01-15T10:16:23;3.60;;;1.80;;
9420;SDS011;4749;51.398;5.466;2024-01-15T10:18:50;4.40;;;1.70;;
9420;SDS011;4749;51.398;5.466;2024-01-15T10:21:18;3.87;;;1.80;;
9420;SDS011;4749;51.398;5.466;2024-01-15T10:23:45;3.63;;;1.50;;
9420;SDS011;4749;51.398;5.466;2024-01-15T10:26:13;4.90;;;2.37;;
9420;SDS011;4749;51.398;5.466;2024-01-15T10:28:44;4.20;;;2.30;;
9420;SDS011;4749;51.398;5.466;2024-01-15T10:31:11;3.83;;;2.10;;
9420;SDS011;4749;51.398;5.466;2024-01-15T10:33:39;4.17;;;2.30;;
9420;SDS011;4749;51.398;5.466;2024-01-15T10:36:07;6.53;;;3.20;;
9420;SDS011;4749;51.398;5.466;2024-01-15T10:38:37;7.60;;;4.60;;
9420;SDS011;4749;51.398;5.466;2024-01-15T10:41:05;6.87;;;3.73;;
9420;SDS011;4749;51.398;5.466;2024-01-15T10:43:32;9.17;;;3.67;;
9420;SDS011;4749;51.398;5.466;2024-01-15T10:46:00;10.13;;;4.30;;
9420;SDS011;4749;51.398;5.466;2024-01-15T10:48:29;9.67;;;3.93;;
9420;SDS011;4749;51.398;5.466;2024-01-15T10:50:57;8.80;;;4.50;;
9420;SDS011;4749;51.398;5.466;2024-01-15T10:53:24;7.37;;;4.53;;
9420;SDS011;4749;51.398;5.466;2024-01-15T10:55:52;10.57;;;4.80;;
9420;SDS011;4749;51.398;5.466;2024-01-15T10:58:23;10.90;;;4.70;;
9420;SDS011;4749;51.398;5.466;2024-01-15T11:00:54;9.07;;;4.60;;
9420;SDS011;4749;51.398;5.466;2024-01-15T11:03:22;11.90;;;4.77;;
9420;SDS011;4749;51.398;5.466;2024-01-15T11:05:50;8.00;;;4.60;;
9420;SDS011;4749;51.398;5.466;2024-01-15T11:08:19;9.03;;;3.63;;
9420;SDS011;4749;51.398;5.466;2024-01-15T11:10:48;6.37;;;3.30;;
9420;SDS011;4749;51.398;5.466;2024-01-15T11:13:22;6.13;;;2.87;;
9420;SDS011;4749;51.398;5.466;2024-01-15T11:16:02;3.60;;;2.40;;
9420;SDS011;4749;51.398;5.466;2024-01-15T11:18:35;5.77;;;2.23;;
9420;SDS011;4749;51.398;5.466;2024-01-15T11:23:42;3.10;;;1.60;;
9420;SDS011;4749;51.398;5.466;2024-01-15T11:32:04;3.73;;;1.60;;
9420;SDS011;4749;51.398;5.466;2024-01-15T11:34:53;3.03;;;1.20;;
9420;SDS011;4749;51.398;5.466;2024-01-15T11:37:26;3.57;;;1.10;;
9420;SDS011;4749;51.398;5.466;2024-01-15T11:40:17;3.50;;;1.20;;
9420;SDS011;4749;51.398;5.466;2024-01-15T11:42:49;3.63;;;1.30;;
9420;SDS011;4749;51.398;5.466;2024-01-15T11:45:19;2.47;;;1.17;;
9420;SDS011;4749;51.398;5.466;2024-01-15T11:50:47;2.10;;;1.40;;
9420;SDS011;4749;51.398;5.466;2024-01-15T11:56:15;4.00;;;0.83;;
9420;SDS011;4749;51.398;5.466;2024-01-15T11:58:43;2.83;;;1.23;;
9420;SDS011;4749;51.398;5.466;2024-01-15T12:01:11;2.83;;;1.00;;
9420;SDS011;4749;51.398;5.466;2024-01-15T12:03:39;1.47;;;0.90;;
9420;SDS011;4749;51.398;5.466;2024-01-15T12:06:06;1.37;;;0.77;;
9420;SDS011;4749;51.398;5.466;2024-01-15T12:08:36;4.17;;;1.20;;
9420;SDS011;4749;51.398;5.466;2024-01-15T12:11:07;2.27;;;0.90;;
9420;SDS011;4749;51.398;5.466;2024-01-15T12:13:40;1.80;;;0.90;;
9420;SDS011;4749;51.398;5.466;2024-01-15T12:16:07;3.67;;;0.90;;
9420;SDS011;4749;51.398;5.466;2024-01-15T12:18:35;4.23;;;0.80;;
9420;SDS011;4749;51.398;5.466;2024-01-15T12:21:03;2.37;;;0.90;;
9420;SDS011;4749;51.398;5.466;2024-01-15T12:23:31;1.27;;;0.90;;
9420;SDS011;4749;51.398;5.466;2024-01-15T12:25:58;3.13;;;1.03;;
9420;SDS011;4749;51.398;5.466;2024-01-15T12:28:27;2.53;;;0.90;;
9420;SDS011;4749;51.398;5.466;2024-01-15T12:30:55;1.80;;;0.93;;
9420;SDS011;4749;51.398;5.466;2024-01-15T12:33:25;2.80;;;1.00;;
9420;SDS011;4749;51.398;5.466;2024-01-15T12:35:55;2.30;;;0.87;;
9420;SDS011;4749;51.398;5.466;2024-01-15T12:38:22;1.33;;;0.90;;
9420;SDS011;4749;51.398;5.466;2024-01-15T12:40:52;4.43;;;0.80;;
9420;SDS011;4749;51.398;5.466;2024-01-15T12:43:19;1.73;;;0.80;;
9420;SDS011;4749;51.398;5.466;2024-01-15T12:45:46;1.23;;;0.70;;
9420;SDS011;4749;51.398;5.466;2024-01-15T12:48:14;1.57;;;0.80;;
9420;SDS011;4749;51.398;5.466;2024-01-15T12:50:44;2.70;;;0.60;;
9420;SDS011;4749;51.398;5.466;2024-01-15T12:53:13;1.47;;;0.70;;
9420;SDS011;4749;51.398;5.466;2024-01-15T12:55:40;1.67;;;0.67;;
9420;SDS011;4749;51.398;5.466;2024-01-15T12:58:07;1.77;;;0.70;;
9420;SDS011;4749;51.398;5.466;2024-01-15T13:00:35;4.13;;;0.90;;
9420;SDS011;4749;51.398;5.466;2024-01-15T13:03:02;0.97;;;0.50;;
9420;SDS011;4749;51.398;5.466;2024-01-15T13:05:31;1.43;;;0.50;;
9420;SDS011;4749;51.398;5.466;2024-01-15T13:08:00;1.63;;;0.97;;
9420;SDS011;4749;51.398;5.466;2024-01-15T13:10:28;2.30;;;0.60;;
9420;SDS011;4749;51.398;5.466;2024-01-15T13:12:56;1.37;;;0.60;;
9420;SDS011;4749;51.398;5.466;2024-01-15T13:15:24;2.00;;;0.73;;
9420;SDS011;4749;51.398;5.466;2024-01-15T13:17:51;1.40;;;0.70;;
9420;SDS011;4749;51.398;5.466;2024-01-15T13:20:18;2.13;;;0.70;;
9420;SDS011;4749;51.398;5.466;2024-01-15T13:22:45;2.10;;;0.70;;
9420;SDS011;4749;51.398;5.466;2024-01-15T13:25:13;1.77;;;0.80;;
9420;SDS011;4749;51.398;5.466;2024-01-15T13:27:40;3.93;;;0.93;;
9420;SDS011;4749;51.398;5.466;2024-01-15T13:30:08;5.03;;;0.70;;
9420;SDS011;4749;51.398;5.466;2024-01-15T13:32:37;3.73;;;0.60;;
9420;SDS011;4749;51.398;5.466;2024-01-15T13:35:04;1.63;;;0.90;;
9420;SDS011;4749;51.398;5.466;2024-01-15T13:37:36;2.70;;;0.87;;
9420;SDS011;4749;51.398;5.466;2024-01-15T13:40:04;6.80;;;0.90;;
9420;SDS011;4749;51.398;5.466;2024-01-15T13:42:34;1.20;;;0.80;;
9420;SDS011;4749;51.398;5.466;2024-01-15T13:45:05;3.57;;;1.37;;
9420;SDS011;4749;51.398;5.466;2024-01-15T13:47:34;4.40;;;1.30;;
9420;SDS011;4749;51.398;5.466;2024-01-15T13:50:01;3.77;;;1.50;;
9420;SDS011;4749;51.398;5.466;2024-01-15T13:52:28;1.77;;;1.20;;
9420;SDS011;4749;51.398;5.466;2024-01-15T13:54:55;1.77;;;1.50;;
9420;SDS011;4749;51.398;5.466;2024-01-15T13:57:22;3.80;;;1.50;;
9420;SDS011;4749;51.398;5.466;2024-01-15T13:59:50;2.47;;;1.60;;
9420;SDS011;4749;51.398;5.466;2024-01-15T14:02:17;4.67;;;1.50;;
9420;SDS011;4749;51.398;5.466;2024-01-15T14:04:47;3.93;;;1.57;;
9420;SDS011;4749;51.398;5.466;2024-01-15T14:07:15;5.00;;;1.50;;
9420;SDS011;4749;51.398;5.466;2024-01-15T14:09:43;5.37;;;1.43;;
9420;SDS011;4749;51.398;5.466;2024-01-15T14:12:11;2.40;;;1.50;;
9420;SDS011;4749;51.398;5.466;2024-01-15T14:14:38;2.40;;;1.03;;
9420;SDS011;4749;51.398;5.466;2024-01-15T14:17:06;4.90;;;1.20;;
9420;SDS011;4749;51.398;5.466;2024-01-15T14:19:34;2.17;;;1.00;;
9420;SDS011;4749;51.398;5.466;2024-01-15T14:22:02;3.33;;;0.90;;
9420;SDS011;4749;51.398;5.466;2024-01-15T14:24:30;2.40;;;1.17;;
9420;SDS011;4749;51.398;5.466;2024-01-15T14:26:57;5.43;;;1.07;;
9420;SDS011;4749;51.398;5.466;2024-01-15T14:29:25;1.90;;;0.90;;
9420;SDS011;4749;51.398;5.466;2024-01-15T14:31:53;4.00;;;0.90;;
9420;SDS011;4749;51.398;5.466;2024-01-15T14:34:21;4.67;;;1.10;;
9420;SDS011;4749;51.398;5.466;2024-01-15T14:36:50;4.60;;;1.13;;
9420;SDS011;4749;51.398;5.466;2024-01-15T14:39:23;3.47;;;0.80;;
9420;SDS011;4749;51.398;5.466;2024-01-15T14:41:52;3.27;;;0.87;;
9420;SDS011;4749;51.398;5.466;2024-01-15T14:44:19;4.33;;;1.20;;
9420;SDS011;4749;51.398;5.466;2024-01-15T14:46:47;3.90;;;1.30;;
9420;SDS011;4749;51.398;5.466;2024-01-15T14:49:14;6.97;;;1.00;;
9420;SDS011;4749;51.398;5.466;2024-01-15T14:51:44;3.47;;;1.30;;
9420;SDS011;4749;51.398;5.466;2024-01-15T14:54:11;7.23;;;1.30;;
9420;SDS011;4749;51.398;5.466;2024-01-15T14:56:38;4.77;;;1.00;;
9420;SDS011;4749;51.398;5.466;2024-01-15T14:59:06;3.33;;;1.10;;
9420;SDS011;4749;51.398;5.466;2024-01-15T15:01:33;4.07;;;0.80;;
9420;SDS011;4749;51.398;5.466;2024-01-15T15:04:00;5.10;;;1.47;;
9420;SDS011;4749;51.398;5.466;2024-01-15T15:06:28;4.90;;;1.03;;
9420;SDS011;4749;51.398;5.466;2024-01-15T15:08:56;7.47;;;1.20;;
9420;SDS011;4749;51.398;5.466;2024-01-15T15:11:26;4.60;;;1.27;;
9420;SDS011;4749;51.398;5.466;2024-01-15T15:13:53;6.30;;;0.97;;
9420;SDS011;4749;51.398;5.466;2024-01-15T15:16:20;3.87;;;1.33;;
9420;SDS011;4749;51.398;5.466;2024-01-15T15:18:47;5.83;;;1.27;;
9420;SDS011;4749;51.398;5.466;2024-01-15T15:21:15;3.77;;;1.20;;
9420;SDS011;4749;51.398;5.466;2024-01-15T15:23:43;7.73;;;1.40;;
9420;SDS011;4749;51.398;5.466;2024-01-15T15:26:10;5.53;;;1.20;;
9420;SDS011;4749;51.398;5.466;2024-01-15T15:28:37;5.40;;;1.37;;